createdAt,value
2019-03-09T00:00:23.134Z,8.31
2019-03-09T00:01:23.094Z,8.25
2019-03-09T00:02:23.093Z,8.31
2019-03-09T00:03:23.087Z,8.25
2019-03-09T00:04:23.123Z,8.25
2019-03-09T00:05:23.113Z,8.25
2019-03-09T00:06:23.113Z,8.25
2019-03-09T00:07:23.137Z,8.25
2019-03-09T00:08:24.815Z,8.25
2019-03-09T00:09:23.095Z,8.25
2019-03-09T00:10:23.088Z,8.25
2019-03-09T00:11:23.073Z,8.25
2019-03-09T00:12:23.071Z,8.25
2019-03-09T00:13:23.084Z,8.25
2019-03-09T00:14:23.084Z,8.25
2019-03-09T00:15:23.068Z,8.25
2019-03-09T00:16:23.138Z,8.19
2019-03-09T00:17:23.128Z,8.25
2019-03-09T00:18:23.214Z,8.25
2019-03-09T00:19:23.116Z,8.19
2019-03-09T00:20:23.095Z,8.25
2019-03-09T00:21:23.081Z,8.25
2019-03-09T00:22:23.070Z,8.25
2019-03-09T00:23:23.072Z,8.19
2019-03-09T00:24:23.085Z,8.25
2019-03-09T00:25:24.724Z,8.19
2019-03-09T00:26:23.088Z,8.19
2019-03-09T00:27:30.526Z,8.19
2019-03-09T00:28:23.085Z,8.19
2019-03-09T00:29:23.307Z,8.19
2019-03-09T00:30:23.249Z,8.25
2019-03-09T00:31:23.080Z,8.19
2019-03-09T00:32:23.060Z,8.25
2019-03-09T00:33:23.065Z,8.25
2019-03-09T00:34:23.088Z,8.25
2019-03-09T00:35:23.103Z,8.25
2019-03-09T00:36:23.215Z,8.25
2019-03-09T00:37:23.065Z,8.25
2019-03-09T00:38:23.096Z,8.25
2019-03-09T00:39:23.044Z,8.25
2019-03-09T00:40:23.087Z,8.25
2019-03-09T00:41:23.119Z,8.25
2019-03-09T00:42:24.841Z,8.25
2019-03-09T00:43:23.055Z,8.25
2019-03-09T00:44:23.042Z,8.25
2019-03-09T00:45:23.089Z,8.25
2019-03-09T00:46:23.066Z,8.25
2019-03-09T00:47:23.098Z,8.25
2019-03-09T00:48:23.064Z,8.25
2019-03-09T00:49:23.087Z,8.25
2019-03-09T00:50:23.516Z,8.25
2019-03-09T00:51:23.087Z,8.25
2019-03-09T00:52:23.131Z,8.25
2019-03-09T00:53:23.062Z,8.25
2019-03-09T00:54:23.042Z,8.25
2019-03-09T00:55:23.038Z,8.25
2019-03-09T00:56:23.019Z,8.25
2019-03-09T00:57:23.046Z,8.25
2019-03-09T00:58:23.015Z,8.25
2019-03-09T00:59:23.072Z,8.25
2019-03-09T01:00:23.045Z,8.25
2019-03-09T01:01:23.039Z,8.25
2019-03-09T01:02:23.254Z,8.25
2019-03-09T01:03:22.998Z,8.25
2019-03-09T01:04:23.014Z,8.25
2019-03-09T01:05:23.028Z,8.25
2019-03-09T01:06:23.024Z,8.25
2019-03-09T01:07:23.128Z,8.25
2019-03-09T01:08:23.007Z,8.31
2019-03-09T01:09:23.076Z,8.25
2019-03-09T01:10:23.002Z,8.25
2019-03-09T01:11:23.008Z,8.31
2019-03-09T01:12:23.032Z,8.31
2019-03-09T01:13:23.367Z,8.31
2019-03-09T01:14:22.997Z,8.31
2019-03-09T01:15:22.994Z,8.31
2019-03-09T01:16:22.997Z,8.31
2019-03-09T01:17:22.980Z,8.31
2019-03-09T01:18:23.002Z,8.31
2019-03-09T01:19:23.006Z,8.31
2019-03-09T01:20:22.991Z,8.31
2019-03-09T01:21:23.002Z,8.31
2019-03-09T01:22:22.993Z,8.31
2019-03-09T01:23:22.976Z,8.38
2019-03-09T01:24:22.967Z,8.31
2019-03-09T01:25:22.955Z,8.31
2019-03-09T01:26:22.954Z,8.38
2019-03-09T01:27:22.967Z,8.31
2019-03-09T01:28:22.974Z,8.38
2019-03-09T01:29:23.001Z,8.38
2019-03-09T01:30:22.960Z,8.31
2019-03-09T01:31:22.973Z,8.38
2019-03-09T01:32:22.948Z,8.31
2019-03-09T01:33:22.980Z,8.31
2019-03-09T01:34:23.027Z,8.38
2019-03-09T01:35:22.967Z,8.31
2019-03-09T01:36:22.953Z,8.38
2019-03-09T01:37:22.973Z,8.38
2019-03-09T01:38:22.956Z,8.38
2019-03-09T01:39:22.964Z,8.38
2019-03-09T01:40:22.911Z,8.38
2019-03-09T01:41:22.946Z,8.38
2019-03-09T01:42:22.926Z,8.38
2019-03-09T01:43:22.937Z,8.38
2019-03-09T01:44:22.934Z,8.38
2019-03-09T01:45:22.950Z,8.38
2019-03-09T01:46:22.959Z,8.44
2019-03-09T01:47:22.951Z,8.44
2019-03-09T01:48:22.912Z,8.44
2019-03-09T01:49:22.957Z,8.5
2019-03-09T01:50:22.914Z,8.5
2019-03-09T01:51:22.983Z,8.5
2019-03-09T01:52:22.913Z,8.44
2019-03-09T01:53:22.935Z,8.5
2019-03-09T01:54:22.917Z,8.56
2019-03-09T01:55:23.252Z,8.5
2019-03-09T01:56:23.140Z,8.56
2019-03-09T01:57:22.921Z,8.56
2019-03-09T01:58:22.958Z,8.56
2019-03-09T01:59:22.999Z,8.63
2019-03-09T02:00:22.931Z,8.56
2019-03-09T02:01:22.928Z,8.63
2019-03-09T02:02:22.977Z,8.63
2019-03-09T02:03:22.970Z,8.63
2019-03-09T02:04:22.944Z,8.63
2019-03-09T02:05:22.964Z,8.63
2019-03-09T02:06:22.982Z,8.63
2019-03-09T02:07:22.915Z,8.69
2019-03-09T02:08:22.881Z,8.69
2019-03-09T02:09:22.915Z,8.69
2019-03-09T02:10:22.915Z,8.69
2019-03-09T02:11:22.895Z,8.69
2019-03-09T02:12:22.943Z,8.75
2019-03-09T02:13:22.933Z,8.75
2019-03-09T02:14:22.940Z,8.75
2019-03-09T02:15:22.886Z,8.75
2019-03-09T02:16:22.878Z,8.75
2019-03-09T02:17:22.915Z,8.75
2019-03-09T02:18:22.879Z,8.75
2019-03-09T02:19:22.896Z,8.75
2019-03-09T02:20:22.897Z,8.81
2019-03-09T02:21:22.892Z,8.75
2019-03-09T02:22:22.881Z,8.81
2019-03-09T02:23:22.934Z,8.75
2019-03-09T02:24:22.893Z,8.81
2019-03-09T02:25:22.892Z,8.81
2019-03-09T02:26:22.910Z,8.81
2019-03-09T02:27:22.909Z,8.75
2019-03-09T02:28:22.905Z,8.81
2019-03-09T02:29:22.895Z,8.81
2019-03-09T02:30:22.918Z,8.81
2019-03-09T02:31:22.861Z,8.81
2019-03-09T02:32:22.907Z,8.81
2019-03-09T02:33:22.939Z,8.81
2019-03-09T02:34:22.978Z,8.81
2019-03-09T02:35:22.900Z,8.81
2019-03-09T02:36:22.982Z,8.81
2019-03-09T02:37:22.905Z,8.81
2019-03-09T02:38:23.336Z,8.88
2019-03-09T02:39:23.006Z,8.81
2019-03-09T02:40:23.747Z,8.88
2019-03-09T02:41:22.914Z,8.88
2019-03-09T02:42:22.874Z,8.88
2019-03-09T02:43:22.846Z,8.88
2019-03-09T02:44:22.880Z,8.88
2019-03-09T02:45:22.945Z,8.94
2019-03-09T02:46:22.884Z,8.88
2019-03-09T02:47:22.992Z,8.88
2019-03-09T02:48:22.916Z,8.94
2019-03-09T02:49:22.944Z,8.88
2019-03-09T02:50:22.911Z,8.94
2019-03-09T02:51:22.877Z,8.94
2019-03-09T02:52:22.878Z,8.94
2019-03-09T02:53:22.868Z,9
2019-03-09T02:54:22.889Z,9
2019-03-09T02:55:22.905Z,9
2019-03-09T02:56:22.879Z,9
2019-03-09T02:57:22.895Z,9
2019-03-09T02:58:22.885Z,9
2019-03-09T02:59:22.876Z,9
2019-03-09T03:00:23.013Z,9
2019-03-09T03:01:23.149Z,9
2019-03-09T03:02:22.931Z,9
2019-03-09T03:03:22.883Z,9
2019-03-09T03:04:22.927Z,9
2019-03-09T03:05:22.898Z,9
2019-03-09T03:06:22.895Z,9
2019-03-09T03:07:22.864Z,9
2019-03-09T03:08:22.838Z,9
2019-03-09T03:09:22.844Z,9
2019-03-09T03:10:22.867Z,9
2019-03-09T03:11:22.875Z,9.06
2019-03-09T03:12:22.847Z,9
2019-03-09T03:13:22.792Z,9
2019-03-09T03:14:22.892Z,9
2019-03-09T03:15:22.823Z,9
2019-03-09T03:16:22.830Z,9
2019-03-09T03:17:22.837Z,9
2019-03-09T03:18:22.869Z,9
2019-03-09T03:19:22.836Z,9.06
2019-03-09T03:20:22.816Z,9
2019-03-09T03:21:22.926Z,9.06
2019-03-09T03:22:22.829Z,9.06
2019-03-09T03:23:22.804Z,9.06
2019-03-09T03:24:22.829Z,9.06
2019-03-09T03:25:22.848Z,9.06
2019-03-09T03:26:22.823Z,9.06
2019-03-09T03:27:22.828Z,9.06
2019-03-09T03:28:22.835Z,9.06
2019-03-09T03:29:22.803Z,9.13
2019-03-09T03:30:23.293Z,9.06
2019-03-09T03:31:22.836Z,9.06
2019-03-09T03:32:22.881Z,9.06
2019-03-09T03:33:23.132Z,9.06
2019-03-09T03:34:22.964Z,9.13
2019-03-09T03:35:22.814Z,9.13
2019-03-09T03:36:22.798Z,9.13
2019-03-09T03:37:22.810Z,9.19
2019-03-09T03:38:22.799Z,9.13
2019-03-09T03:39:22.811Z,9.19
2019-03-09T03:40:22.851Z,9.19
2019-03-09T03:41:22.804Z,9.19
2019-03-09T03:42:22.798Z,9.13
2019-03-09T03:43:22.829Z,9.19
2019-03-09T03:44:22.893Z,9.19
2019-03-09T03:45:22.755Z,9.19
2019-03-09T03:46:22.792Z,9.19
2019-03-09T03:47:22.764Z,9.19
2019-03-09T03:48:22.823Z,9.19
2019-03-09T03:49:22.797Z,9.25
2019-03-09T03:50:22.809Z,9.25
2019-03-09T03:51:22.817Z,9.25
2019-03-09T03:52:22.846Z,9.25
2019-03-09T03:53:22.813Z,9.25
2019-03-09T03:54:22.874Z,9.25
2019-03-09T03:55:22.854Z,9.25
2019-03-09T03:56:22.782Z,9.25
2019-03-09T03:57:22.785Z,9.25
2019-03-09T03:58:22.787Z,9.25
2019-03-09T03:59:22.756Z,9.25
2019-03-09T04:00:23.068Z,9.25
2019-03-09T04:01:22.744Z,9.25
2019-03-09T04:02:22.742Z,9.25
2019-03-09T04:03:22.759Z,9.25
2019-03-09T04:04:22.766Z,9.25
2019-03-09T04:05:22.806Z,9.25
2019-03-09T04:06:22.766Z,9.25
2019-03-09T04:07:22.745Z,9.25
2019-03-09T04:08:22.767Z,9.25
2019-03-09T04:09:22.782Z,9.25
2019-03-09T04:10:22.808Z,9.25
2019-03-09T04:11:22.756Z,9.25
2019-03-09T04:12:22.817Z,9.25
2019-03-09T04:13:22.753Z,9.19
2019-03-09T04:14:22.748Z,9.19
2019-03-09T04:15:22.745Z,9.19
2019-03-09T04:16:22.774Z,9.13
2019-03-09T04:17:22.741Z,9.19
2019-03-09T04:18:22.803Z,9.13
2019-03-09T04:19:22.704Z,9.13
2019-03-09T04:20:22.717Z,9.13
2019-03-09T04:21:22.764Z,9.13
2019-03-09T04:22:22.764Z,9.13
2019-03-09T04:23:24.176Z,9.13
2019-03-09T04:24:22.700Z,9.06
2019-03-09T04:25:22.717Z,9.06
2019-03-09T04:26:22.716Z,9.06
2019-03-09T04:27:22.763Z,9.06
2019-03-09T04:28:22.732Z,9.06
2019-03-09T04:29:22.716Z,9
2019-03-09T04:30:22.750Z,9.06
2019-03-09T04:31:22.721Z,9
2019-03-09T04:32:22.706Z,9
2019-03-09T04:33:22.699Z,9
2019-03-09T04:34:22.703Z,9
2019-03-09T04:35:22.714Z,9
2019-03-09T04:36:22.721Z,8.94
2019-03-09T04:37:22.689Z,8.94
2019-03-09T04:38:22.695Z,8.94
2019-03-09T04:39:22.695Z,8.94
2019-03-09T04:40:22.810Z,8.88
2019-03-09T04:41:23.097Z,8.88
2019-03-09T04:42:22.703Z,8.81
2019-03-09T04:43:22.678Z,8.81
2019-03-09T04:44:22.658Z,8.81
2019-03-09T04:45:22.654Z,8.81
2019-03-09T04:46:22.667Z,8.81
2019-03-09T04:47:22.696Z,8.75
2019-03-09T04:48:22.717Z,8.75
2019-03-09T04:49:22.645Z,8.69
2019-03-09T04:50:22.685Z,8.75
2019-03-09T04:51:22.683Z,8.69
2019-03-09T04:52:22.677Z,8.69
2019-03-09T04:53:22.690Z,8.63
2019-03-09T04:54:22.735Z,8.63
2019-03-09T04:55:22.692Z,8.69
2019-03-09T04:56:22.655Z,8.56
2019-03-09T04:57:22.689Z,8.56
2019-03-09T04:58:22.672Z,8.56
2019-03-09T04:59:22.672Z,8.56
2019-03-09T05:00:22.662Z,8.56
2019-03-09T05:01:22.679Z,8.56
2019-03-09T05:02:22.713Z,8.5
2019-03-09T05:03:22.785Z,8.5
2019-03-09T05:04:22.645Z,8.5
2019-03-09T05:05:22.656Z,8.44
2019-03-09T05:06:22.647Z,8.44
2019-03-09T05:07:22.695Z,8.44
2019-03-09T05:08:22.674Z,8.44
2019-03-09T05:09:22.638Z,8.44
2019-03-09T05:10:22.677Z,8.44
2019-03-09T05:11:22.660Z,8.44
2019-03-09T05:12:22.708Z,8.38
2019-03-09T05:13:22.670Z,8.38
2019-03-09T05:14:22.623Z,8.38
2019-03-09T05:15:22.642Z,8.38
2019-03-09T05:16:22.666Z,8.38
2019-03-09T05:17:22.640Z,8.31
2019-03-09T05:18:22.631Z,8.31
2019-03-09T05:19:22.654Z,8.31
2019-03-09T05:20:22.653Z,8.25
2019-03-09T05:21:22.725Z,8.25
2019-03-09T05:22:22.631Z,8.25
2019-03-09T05:23:22.628Z,8.19
2019-03-09T05:24:22.922Z,8.25
2019-03-09T05:25:22.626Z,8.19
2019-03-09T05:26:22.632Z,8.19
2019-03-09T05:27:22.615Z,8.19
2019-03-09T05:28:22.605Z,8.19
2019-03-09T05:29:22.595Z,8.19
2019-03-09T05:30:22.622Z,8.19
2019-03-09T05:31:22.633Z,8.19
2019-03-09T05:32:22.621Z,8.13
2019-03-09T05:33:22.658Z,8.19
2019-03-09T05:34:22.628Z,8.13
2019-03-09T05:35:22.612Z,8.13
2019-03-09T05:36:22.597Z,8.13
2019-03-09T05:37:22.588Z,8.13
2019-03-09T05:38:22.621Z,8.13
2019-03-09T05:39:22.635Z,8.06
2019-03-09T05:40:22.634Z,8
2019-03-09T05:41:22.584Z,8.06
2019-03-09T05:42:22.619Z,8
2019-03-09T05:43:22.613Z,8
2019-03-09T05:44:22.627Z,8
2019-03-09T05:45:22.605Z,8
2019-03-09T05:46:22.703Z,8
2019-03-09T05:47:22.853Z,7.94
2019-03-09T05:48:22.620Z,7.87
2019-03-09T05:49:22.616Z,7.94
2019-03-09T05:50:22.590Z,7.87
2019-03-09T05:51:22.604Z,7.94
2019-03-09T05:52:22.575Z,7.87
2019-03-09T05:53:22.580Z,7.87
2019-03-09T05:54:22.749Z,7.87
2019-03-09T05:55:22.641Z,7.87
2019-03-09T05:56:22.592Z,7.87
2019-03-09T05:57:22.593Z,7.87
2019-03-09T05:58:22.583Z,7.87
2019-03-09T05:59:22.585Z,7.87
2019-03-09T06:00:22.562Z,7.87
2019-03-09T06:01:22.562Z,7.87
2019-03-09T06:02:22.556Z,7.94
2019-03-09T06:03:22.612Z,7.87
2019-03-09T06:04:22.593Z,7.87
2019-03-09T06:05:22.582Z,7.87
2019-03-09T06:06:22.558Z,7.94
2019-03-09T06:07:22.567Z,7.94
2019-03-09T06:08:22.644Z,7.94
2019-03-09T06:09:22.581Z,7.94
2019-03-09T06:10:22.567Z,7.87
2019-03-09T06:11:22.579Z,7.94
2019-03-09T06:12:22.551Z,7.94
2019-03-09T06:13:22.532Z,7.94
2019-03-09T06:14:22.561Z,7.94
2019-03-09T06:15:22.541Z,7.87
2019-03-09T06:16:22.559Z,7.94
2019-03-09T06:17:22.588Z,7.94
2019-03-09T06:18:22.569Z,7.94
2019-03-09T06:19:22.530Z,7.94
2019-03-09T06:20:22.526Z,7.94
2019-03-09T06:21:22.655Z,7.94
2019-03-09T06:22:22.538Z,7.94
2019-03-09T06:23:22.542Z,7.94
2019-03-09T06:24:22.527Z,7.94
2019-03-09T06:25:22.560Z,7.94
2019-03-09T06:26:22.521Z,7.94
2019-03-09T06:27:22.545Z,8
2019-03-09T06:28:22.541Z,7.94
2019-03-09T06:29:22.522Z,8
2019-03-09T06:30:22.651Z,8
2019-03-09T06:31:22.531Z,8
2019-03-09T06:32:22.521Z,8
2019-03-09T06:33:22.521Z,8
2019-03-09T06:34:22.548Z,8.06
2019-03-09T06:35:22.528Z,8
2019-03-09T06:36:22.698Z,8
2019-03-09T06:37:22.546Z,8.06
2019-03-09T06:38:22.504Z,8
2019-03-09T06:39:22.514Z,8.06
2019-03-09T06:40:22.507Z,8
2019-03-09T06:41:22.501Z,8.06
2019-03-09T06:42:22.509Z,8.06
2019-03-09T06:43:22.520Z,8
2019-03-09T06:44:22.543Z,8.06
2019-03-09T06:45:22.511Z,8
2019-03-09T06:46:22.517Z,8.06
2019-03-09T06:47:22.611Z,8.06
2019-03-09T06:48:22.520Z,8.06
2019-03-09T06:49:22.490Z,8.06
2019-03-09T06:50:22.495Z,8.06
2019-03-09T06:51:22.546Z,8
2019-03-09T06:52:23.435Z,8.13
2019-03-09T06:53:22.510Z,8.06
2019-03-09T06:54:22.537Z,8.13
2019-03-09T06:55:22.523Z,8.06
2019-03-09T06:56:22.481Z,8.13
2019-03-09T06:57:22.545Z,8.13
2019-03-09T06:58:22.482Z,8.06
2019-03-09T06:59:22.524Z,8.13
2019-03-09T07:00:22.496Z,8.13
2019-03-09T07:01:22.522Z,8.13
2019-03-09T07:02:22.484Z,8.13
2019-03-09T07:03:22.511Z,8.13
2019-03-09T07:04:22.483Z,8.13
2019-03-09T07:05:22.513Z,8.19
2019-03-09T07:06:22.474Z,8.19
2019-03-09T07:07:22.478Z,8.19
2019-03-09T07:08:22.488Z,8.19
2019-03-09T07:09:22.506Z,8.19
2019-03-09T07:10:22.478Z,8.25
2019-03-09T07:11:22.481Z,8.19
2019-03-09T07:12:22.507Z,8.25
2019-03-09T07:13:22.480Z,8.25
2019-03-09T07:14:22.902Z,8.25
2019-03-09T07:15:22.507Z,8.25
2019-03-09T07:16:22.455Z,8.25
2019-03-09T07:17:22.461Z,8.25
2019-03-09T07:18:22.502Z,8.25
2019-03-09T07:19:22.508Z,8.31
2019-03-09T07:20:22.697Z,8.31
2019-03-09T07:21:22.461Z,8.31
2019-03-09T07:22:22.466Z,8.31
2019-03-09T07:23:22.457Z,8.38
2019-03-09T07:24:22.517Z,8.31
2019-03-09T07:25:22.475Z,8.38
2019-03-09T07:26:22.466Z,8.38
2019-03-09T07:27:22.432Z,8.38
2019-03-09T07:28:22.466Z,8.38
2019-03-09T07:29:22.452Z,8.44
2019-03-09T07:30:22.515Z,8.44
2019-03-09T07:31:22.482Z,8.44
2019-03-09T07:32:22.486Z,8.44
2019-03-09T07:33:22.448Z,8.44
2019-03-09T07:34:22.495Z,8.44
2019-03-09T07:35:22.457Z,8.5
2019-03-09T07:36:22.415Z,8.5
2019-03-09T07:37:22.417Z,8.56
2019-03-09T07:38:22.438Z,8.5
2019-03-09T07:39:22.462Z,8.5
2019-03-09T07:40:22.490Z,8.56
2019-03-09T07:41:22.439Z,8.5
2019-03-09T07:42:22.442Z,8.56
2019-03-09T07:43:22.450Z,8.56
2019-03-09T07:44:22.437Z,8.56
2019-03-09T07:45:22.468Z,8.56
2019-03-09T07:46:22.448Z,8.63
2019-03-09T07:47:22.429Z,8.63
2019-03-09T07:48:22.411Z,8.63
2019-03-09T07:49:22.442Z,8.63
2019-03-09T07:50:22.420Z,8.63
2019-03-09T07:51:22.425Z,8.63
2019-03-09T07:52:22.417Z,8.63
2019-03-09T07:53:22.447Z,8.69
2019-03-09T07:54:22.425Z,8.63
2019-03-09T07:55:22.435Z,8.69
2019-03-09T07:56:22.413Z,8.69
2019-03-09T07:57:22.414Z,8.69
2019-03-09T07:58:22.431Z,8.69
2019-03-09T07:59:22.405Z,8.69
2019-03-09T08:00:22.486Z,8.69
2019-03-09T08:01:24.297Z,8.69
2019-03-09T08:02:22.402Z,8.75
2019-03-09T08:03:22.410Z,8.81
2019-03-09T08:04:22.408Z,8.75
2019-03-09T08:05:22.410Z,8.81
2019-03-09T08:06:22.409Z,8.75
2019-03-09T08:07:22.394Z,8.81
2019-03-09T08:08:22.422Z,8.81
2019-03-09T08:09:24.542Z,8.81
2019-03-09T08:10:22.436Z,8.81
2019-03-09T08:11:22.419Z,8.88
2019-03-09T08:12:24.509Z,8.88
2019-03-09T08:13:22.418Z,8.88
2019-03-09T08:14:22.433Z,8.88
2019-03-09T08:15:22.433Z,8.88
2019-03-09T08:16:22.377Z,8.88
2019-03-09T08:17:22.400Z,8.94
2019-03-09T08:18:22.515Z,8.94
2019-03-09T08:19:22.635Z,8.94
2019-03-09T08:20:22.451Z,8.94
2019-03-09T08:21:22.442Z,9
2019-03-09T08:22:22.382Z,9
2019-03-09T08:23:22.418Z,9
2019-03-09T08:24:22.397Z,9
2019-03-09T08:25:22.425Z,9
2019-03-09T08:26:22.389Z,9
2019-03-09T08:27:22.451Z,9
2019-03-09T08:28:22.440Z,9.06
2019-03-09T08:29:22.374Z,9.06
2019-03-09T08:30:22.483Z,9.06
2019-03-09T08:31:22.429Z,9.13
2019-03-09T08:32:22.466Z,9.13
2019-03-09T08:33:22.472Z,9.13
2019-03-09T08:34:22.406Z,9.19
2019-03-09T08:35:22.385Z,9.13
2019-03-09T08:36:22.380Z,9.19
2019-03-09T08:37:22.449Z,9.19
2019-03-09T08:38:22.456Z,9.19
2019-03-09T08:39:22.425Z,9.19
2019-03-09T08:40:22.498Z,9.19
2019-03-09T08:41:22.545Z,9.25
2019-03-09T08:42:22.400Z,9.25
2019-03-09T08:43:22.409Z,9.19
2019-03-09T08:44:22.411Z,9.25
2019-03-09T08:45:22.388Z,9.19
2019-03-09T08:46:22.509Z,9.25
2019-03-09T08:47:22.466Z,9.19
2019-03-09T08:48:22.467Z,9.25
2019-03-09T08:49:22.416Z,9.25
2019-03-09T08:50:22.783Z,9.25
2019-03-09T08:51:22.453Z,9.25
2019-03-09T08:52:22.419Z,9.31
2019-03-09T08:53:22.441Z,9.25
2019-03-09T08:54:22.429Z,9.31
2019-03-09T08:55:22.521Z,9.31
2019-03-09T08:56:22.425Z,9.31
2019-03-09T08:57:22.418Z,9.31
2019-03-09T08:58:22.446Z,9.31
2019-03-09T08:59:22.490Z,9.31
2019-03-09T09:00:22.477Z,9.31
2019-03-09T09:01:22.407Z,9.31
2019-03-09T09:02:23.028Z,9.38
2019-03-09T09:03:22.328Z,9.38
2019-03-09T09:04:22.327Z,9.38
2019-03-09T09:05:22.333Z,9.31
2019-03-09T09:06:22.313Z,9.38
2019-03-09T09:07:22.343Z,9.38
2019-03-09T09:08:22.364Z,9.38
2019-03-09T09:09:22.367Z,9.38
2019-03-09T09:10:22.378Z,9.44
2019-03-09T09:11:22.338Z,9.38
2019-03-09T09:12:22.299Z,9.44
2019-03-09T09:13:22.317Z,9.44
2019-03-09T09:14:22.305Z,9.5
2019-03-09T09:15:22.306Z,9.5
2019-03-09T09:16:22.316Z,9.5
2019-03-09T09:17:22.325Z,9.5
2019-03-09T09:18:22.301Z,9.5
2019-03-09T09:19:22.288Z,9.5
2019-03-09T09:20:22.294Z,9.56
2019-03-09T09:21:22.297Z,9.5
2019-03-09T09:22:22.309Z,9.56
2019-03-09T09:23:22.874Z,9.5
2019-03-09T09:24:22.294Z,9.56
2019-03-09T09:25:22.390Z,9.56
2019-03-09T09:26:22.304Z,9.56
2019-03-09T09:27:22.256Z,9.63
2019-03-09T09:28:22.286Z,9.63
2019-03-09T09:29:22.321Z,9.63
2019-03-09T09:30:22.311Z,9.63
2019-03-09T09:31:22.311Z,9.63
2019-03-09T09:32:22.318Z,9.63
2019-03-09T09:33:22.305Z,9.69
2019-03-09T09:34:22.334Z,9.63
2019-03-09T09:35:22.280Z,9.69
2019-03-09T09:36:22.294Z,9.69
2019-03-09T09:37:22.298Z,9.69
2019-03-09T09:38:22.334Z,9.69
2019-03-09T09:39:22.279Z,9.75
2019-03-09T09:40:22.330Z,9.75
2019-03-09T09:41:22.355Z,9.75
2019-03-09T09:42:22.298Z,9.75
2019-03-09T09:43:22.315Z,9.81
2019-03-09T09:44:22.267Z,9.75
2019-03-09T09:45:22.411Z,9.81
2019-03-09T09:46:22.281Z,9.81
2019-03-09T09:47:22.339Z,9.81
2019-03-09T09:48:22.253Z,9.81
2019-03-09T09:49:22.277Z,9.81
2019-03-09T09:50:22.305Z,9.81
2019-03-09T09:51:22.266Z,9.88
2019-03-09T09:52:22.257Z,9.81
2019-03-09T09:53:23.909Z,9.81
2019-03-09T09:54:22.244Z,9.81
2019-03-09T09:55:22.247Z,9.88
2019-03-09T09:56:22.251Z,9.88
2019-03-09T09:57:22.286Z,9.88
2019-03-09T09:58:22.297Z,9.88
2019-03-09T09:59:22.280Z,9.88
2019-03-09T10:00:22.360Z,9.88
2019-03-09T10:01:22.291Z,9.94
2019-03-09T10:02:22.252Z,9.88
2019-03-09T10:03:22.277Z,9.94
2019-03-09T10:04:22.236Z,9.94
2019-03-09T10:05:22.269Z,10
2019-03-09T10:06:22.004Z,10
2019-03-09T10:07:22.331Z,10
2019-03-09T10:08:22.271Z,10
2019-03-09T10:09:22.265Z,10.06
2019-03-09T10:10:22.267Z,10.06
2019-03-09T10:11:22.223Z,10.06
2019-03-09T10:12:22.212Z,10.06
2019-03-09T10:13:22.217Z,10.06
2019-03-09T10:14:22.215Z,10.06
2019-03-09T10:15:22.213Z,10.13
2019-03-09T10:16:22.271Z,10.19
2019-03-09T10:17:22.328Z,10.19
2019-03-09T10:18:22.201Z,10.19
2019-03-09T10:19:22.265Z,10.25
2019-03-09T10:20:22.215Z,10.19
2019-03-09T10:21:22.206Z,10.19
2019-03-09T10:22:22.206Z,10.25
2019-03-09T10:23:22.226Z,10.25
2019-03-09T10:24:22.200Z,10.31
2019-03-09T10:25:22.232Z,10.31
2019-03-09T10:26:26.977Z,10.31
2019-03-09T10:27:22.199Z,10.31
2019-03-09T10:28:22.214Z,10.31
2019-03-09T10:29:22.410Z,10.31
2019-03-09T10:30:22.212Z,10.31
2019-03-09T10:31:22.168Z,10.38
2019-03-09T10:32:22.202Z,10.38
2019-03-09T10:33:24.545Z,10.38
2019-03-09T10:34:22.238Z,10.38
2019-03-09T10:35:22.233Z,10.44
2019-03-09T10:36:22.257Z,10.38
2019-03-09T10:37:22.202Z,10.44
2019-03-09T10:38:22.206Z,10.44
2019-03-09T10:39:22.198Z,10.44
2019-03-09T10:40:22.211Z,10.5
2019-03-09T10:41:22.196Z,10.44
2019-03-09T10:42:22.193Z,10.5
2019-03-09T10:43:22.187Z,10.5
2019-03-09T10:44:22.183Z,10.5
2019-03-09T10:45:22.243Z,10.5
2019-03-09T10:46:22.180Z,10.5
2019-03-09T10:47:22.203Z,10.5
2019-03-09T10:48:22.171Z,10.5
2019-03-09T10:49:22.188Z,10.5
2019-03-09T10:50:22.263Z,10.44
2019-03-09T10:51:22.294Z,10.5
2019-03-09T10:52:22.162Z,10.44
2019-03-09T10:53:22.228Z,10.5
2019-03-09T10:54:22.175Z,10.44
2019-03-09T10:55:22.185Z,10.44
2019-03-09T10:56:22.167Z,10.44
2019-03-09T10:57:22.161Z,10.38
2019-03-09T10:58:22.180Z,10.38
2019-03-09T10:59:22.158Z,10.38
2019-03-09T11:00:22.158Z,10.38
2019-03-09T11:01:22.174Z,10.38
2019-03-09T11:02:22.147Z,10.31
2019-03-09T11:03:22.184Z,10.31
2019-03-09T11:04:28.206Z,10.31
2019-03-09T11:05:22.191Z,10.25
2019-03-09T11:06:22.151Z,10.25
2019-03-09T11:07:22.140Z,10.25
2019-03-09T11:08:22.161Z,10.25
2019-03-09T11:09:22.193Z,10.25
2019-03-09T11:10:22.201Z,10.19
2019-03-09T11:11:22.162Z,10.25
2019-03-09T11:12:22.192Z,10.19
2019-03-09T11:13:22.153Z,10.25
2019-03-09T11:14:22.181Z,10.25
2019-03-09T11:15:22.147Z,10.19
2019-03-09T11:16:22.228Z,10.19
2019-03-09T11:17:22.133Z,10.13
2019-03-09T11:18:22.130Z,10.13
2019-03-09T11:19:22.148Z,10.13
2019-03-09T11:20:22.144Z,10.13
2019-03-09T11:21:22.137Z,10.13
2019-03-09T11:22:22.130Z,10.06
2019-03-09T11:23:22.135Z,10.06
2019-03-09T11:24:22.133Z,10.06
2019-03-09T11:25:22.158Z,10.06
2019-03-09T11:26:22.138Z,10.06
2019-03-09T11:27:22.280Z,10.06
2019-03-09T11:28:22.125Z,10.06
2019-03-09T11:29:22.145Z,10.06
2019-03-09T11:30:22.143Z,10
2019-03-09T11:31:22.125Z,10
2019-03-09T11:32:22.121Z,10
2019-03-09T11:33:22.149Z,10
2019-03-09T11:34:22.611Z,10
2019-03-09T11:35:22.177Z,10
2019-03-09T11:36:22.188Z,10
2019-03-09T11:37:22.146Z,10
2019-03-09T11:38:22.135Z,10
2019-03-09T11:39:22.190Z,10.06
2019-03-09T11:40:22.147Z,10
2019-03-09T11:41:22.127Z,10
2019-03-09T11:42:22.112Z,10
2019-03-09T11:43:22.224Z,10
2019-03-09T11:44:22.100Z,10.06
2019-03-09T11:45:22.111Z,10
2019-03-09T11:46:22.108Z,10
2019-03-09T11:47:22.111Z,10.06
2019-03-09T11:48:22.112Z,10
2019-03-09T11:49:22.130Z,10
2019-03-09T11:50:22.190Z,10.06
2019-03-09T11:51:22.117Z,10.06
2019-03-09T11:52:22.097Z,10.06
2019-03-09T11:53:22.127Z,10.06
2019-03-09T11:54:22.870Z,10
2019-03-09T11:55:22.112Z,10.06
2019-03-09T11:56:22.073Z,10.06
2019-03-09T11:57:22.090Z,10.06
2019-03-09T11:58:22.090Z,10.06
2019-03-09T11:59:22.190Z,10.06
2019-03-09T12:00:22.083Z,10.06
2019-03-09T12:01:22.091Z,10.06
2019-03-09T12:02:22.132Z,10.06
2019-03-09T12:03:22.074Z,10.13
2019-03-09T12:04:22.084Z,10.06
2019-03-09T12:05:22.183Z,10.13
2019-03-09T12:06:22.078Z,10.13
2019-03-09T12:07:22.079Z,10.13
2019-03-09T12:08:22.057Z,10.13
2019-03-09T12:09:22.062Z,10.13
2019-03-09T12:10:22.214Z,10.13
2019-03-09T12:11:22.219Z,10.13
2019-03-09T12:12:22.100Z,10.13
2019-03-09T12:13:22.073Z,10.19
2019-03-09T12:14:22.153Z,10.19
2019-03-09T12:15:22.059Z,10.19
2019-03-09T12:16:22.148Z,10.25
2019-03-09T12:17:22.080Z,10.25
2019-03-09T12:18:22.046Z,10.25
2019-03-09T12:19:22.062Z,10.25
2019-03-09T12:20:22.083Z,10.25
2019-03-09T12:21:22.070Z,10.31
2019-03-09T12:22:22.067Z,10.25
2019-03-09T12:23:22.178Z,10.31
2019-03-09T12:24:23.156Z,10.31
2019-03-09T12:25:22.113Z,10.31
2019-03-09T12:26:22.080Z,10.31
2019-03-09T12:27:23.050Z,10.38
2019-03-09T12:28:22.074Z,10.38
2019-03-09T12:29:22.027Z,10.38
2019-03-09T12:30:22.096Z,10.38
2019-03-09T12:31:22.053Z,10.38
2019-03-09T12:32:22.033Z,10.44
2019-03-09T12:33:22.047Z,10.38
2019-03-09T12:34:22.042Z,10.44
2019-03-09T12:35:22.055Z,10.44
2019-03-09T12:36:22.053Z,10.44
2019-03-09T12:37:22.012Z,10.44
2019-03-09T12:38:22.057Z,10.44
2019-03-09T12:39:22.901Z,10.44
2019-03-09T12:40:22.228Z,10.44
2019-03-09T12:41:22.060Z,10.44
2019-03-09T12:42:22.157Z,10.44
2019-03-09T12:43:22.057Z,10.44
2019-03-09T12:44:22.115Z,10.5
2019-03-09T12:45:22.066Z,10.44
2019-03-09T12:46:22.031Z,10.5
2019-03-09T12:47:22.059Z,10.5
2019-03-09T12:48:22.133Z,10.44
2019-03-09T12:49:22.027Z,10.5
2019-03-09T12:50:22.156Z,10.5
2019-03-09T12:51:22.016Z,10.44
2019-03-09T12:52:22.027Z,10.5
2019-03-09T12:53:22.061Z,10.44
2019-03-09T12:54:22.013Z,10.38
2019-03-09T12:55:21.995Z,10.44
2019-03-09T12:56:22.007Z,10.38
2019-03-09T12:57:22.018Z,10.44
2019-03-09T12:58:22.041Z,10.38
2019-03-09T12:59:22.019Z,10.38
2019-03-09T13:00:22.094Z,10.44
2019-03-09T13:01:22.419Z,10.38
2019-03-09T13:02:21.991Z,10.38
2019-03-09T13:03:21.992Z,10.38
2019-03-09T13:04:22.023Z,10.38
2019-03-09T13:05:22.021Z,10.38
2019-03-09T13:06:22.032Z,10.31
2019-03-09T13:07:22.014Z,10.31
2019-03-09T13:08:23.874Z,10.31
2019-03-09T13:09:22.005Z,10.31
2019-03-09T13:10:21.976Z,10.38
2019-03-09T13:11:22.012Z,10.31
2019-03-09T13:12:22.031Z,10.38
2019-03-09T13:13:21.976Z,10.38
2019-03-09T13:14:21.966Z,10.38
2019-03-09T13:15:22.010Z,10.38
2019-03-09T13:16:21.995Z,10.38
2019-03-09T13:17:21.978Z,10.38
2019-03-09T13:18:21.993Z,10.38
2019-03-09T13:19:21.991Z,10.38
2019-03-09T13:20:21.969Z,10.38
2019-03-09T13:21:22.094Z,10.38